sensor_id;sensor_type;location;lat;lon;timestamp;temperature;humidity
17845;DHT22;9047;53.486;10.218;2022-09-12T00:00:30;12.10;99.90
17845;DHT22;9047;53.486;10.218;2022-09-12T00:03:06;12.00;99.90
17845;DHT22;9047;53.486;10.218;2022-09-12T00:05:41;12.00;99.90
17845;DHT22;9047;53.486;10.218;2022-09-12T00:08:48;12.00;99.90
17845;DHT22;9047;53.486;10.218;2022-09-12T00:11:24;11.90;99.90
17845;DHT22;9047;53.486;10.218;2022-09-12T00:14:04;11.80;99.90
17845;DHT22;9047;53.486;10.218;2022-09-12T00:17:01;11.90;99.90
17845;DHT22;9047;53.486;10.218;2022-09-12T00:19:32;11.90;99.90
17845;DHT22;9047;53.486;10.218;2022-09-12T00:22:03;11.80;99.90
17845;DHT22;9047;53.486;10.218;2022-09-12T00:24:39;11.80;99.90
17845;DHT22;9047;53.486;10.218;2022-09-12T00:30:25;11.70;99.90
17845;DHT22;9047;53.486;10.218;2022-09-12T00:33:08;11.70;99.90
17845;DHT22;9047;53.486;10.218;2022-09-12T00:35:53;11.70;99.90
17845;DHT22;9047;53.486;10.218;2022-09-12T00:41:54;11.70;99.90
17845;DHT22;9047;53.486;10.218;2022-09-12T00:44:48;11.60;99.90
17845;DHT22;9047;53.486;10.218;2022-09-12T00:47:23;11.60;99.90
17845;DHT22;9047;53.486;10.218;2022-09-12T00:50:17;11.50;99.90
17845;DHT22;9047;53.486;10.218;2022-09-12T00:52:52;11.50;99.90
17845;DHT22;9047;53.486;10.218;2022-09-12T00:55:33;11.60;99.90
17845;DHT22;9047;53.486;10.218;2022-09-12T00:58:22;11.60;99.90
17845;DHT22;9047;53.486;10.218;2022-09-12T01:01:03;11.50;99.90
17845;DHT22;9047;53.486;10.218;2022-09-12T01:03:44;11.50;99.90
17845;DHT22;9047;53.486;10.218;2022-09-12T01:06:37;11.40;99.90
17845;DHT22;9047;53.486;10.218;2022-09-12T01:09:24;11.50;99.90
17845;DHT22;9047;53.486;10.218;2022-09-12T01:12:12;11.40;99.90
17845;DHT22;9047;53.486;10.218;2022-09-12T01:14:51;11.40;99.90
17845;DHT22;9047;53.486;10.218;2022-09-12T01:17:52;11.40;99.90
17845;DHT22;9047;53.486;10.218;2022-09-12T01:20:52;11.30;99.90
17845;DHT22;9047;53.486;10.218;2022-09-12T01:24:08;11.30;99.90
17845;DHT22;9047;53.486;10.218;2022-09-12T01:27:11;11.30;99.90
17845;DHT22;9047;53.486;10.218;2022-09-12T01:30:22;11.30;99.90
17845;DHT22;9047;53.486;10.218;2022-09-12T01:33:27;11.20;99.90
17845;DHT22;9047;53.486;10.218;2022-09-12T01:36:35;11.20;99.90
17845;DHT22;9047;53.486;10.218;2022-09-12T01:39:39;11.20;99.90
17845;DHT22;9047;53.486;10.218;2022-09-12T01:42:35;11.20;99.90
17845;DHT22;9047;53.486;10.218;2022-09-12T01:45:19;11.10;99.90
17845;DHT22;9047;53.486;10.218;2022-09-12T01:48:25;11.10;99.90
17845;DHT22;9047;53.486;10.218;2022-09-12T01:51:05;11.10;99.90
17845;DHT22;9047;53.486;10.218;2022-09-12T01:53:47;11.10;99.90
17845;DHT22;9047;53.486;10.218;2022-09-12T01:56:27;11.10;99.90
17845;DHT22;9047;53.486;10.218;2022-09-12T01:59:02;11.10;99.90
17845;DHT22;9047;53.486;10.218;2022-09-12T02:01:38;11.10;99.90
17845;DHT22;9047;53.486;10.218;2022-09-12T02:04:47;11.00;99.90
17845;DHT22;9047;53.486;10.218;2022-09-12T02:10:36;11.00;99.90
17845;DHT22;9047;53.486;10.218;2022-09-12T02:17:33;11.00;99.90
17845;DHT22;9047;53.486;10.218;2022-09-12T02:20:48;11.00;99.90
17845;DHT22;9047;53.486;10.218;2022-09-12T02:24:09;10.90;99.90
17845;DHT22;9047;53.486;10.218;2022-09-12T02:27:17;10.90;99.90
17845;DHT22;9047;53.486;10.218;2022-09-12T02:30:18;10.90;99.90
17845;DHT22;9047;53.486;10.218;2022-09-12T02:33:45;10.90;99.90
17845;DHT22;9047;53.486;10.218;2022-09-12T02:36:33;10.80;99.90
17845;DHT22;9047;53.486;10.218;2022-09-12T02:42:15;10.80;99.90
17845;DHT22;9047;53.486;10.218;2022-09-12T02:44:57;10.80;99.90
17845;DHT22;9047;53.486;10.218;2022-09-12T02:47:33;10.80;99.90
17845;DHT22;9047;53.486;10.218;2022-09-12T02:50:10;10.70;99.90
17845;DHT22;9047;53.486;10.218;2022-09-12T02:52:46;10.70;99.90
17845;DHT22;9047;53.486;10.218;2022-09-12T02:55:15;10.70;99.90
17845;DHT22;9047;53.486;10.218;2022-09-12T02:57:53;10.70;99.90
17845;DHT22;9047;53.486;10.218;2022-09-12T03:00:50;10.70;99.90
17845;DHT22;9047;53.486;10.218;2022-09-12T03:03:38;10.60;99.90
17845;DHT22;9047;53.486;10.218;2022-09-12T03:07:13;10.60;99.90
17845;DHT22;9047;53.486;10.218;2022-09-12T03:16:25;10.60;99.90
17845;DHT22;9047;53.486;10.218;2022-09-12T03:19:05;10.60;99.90
17845;DHT22;9047;53.486;10.218;2022-09-12T03:24:47;10.60;99.90
17845;DHT22;9047;53.486;10.218;2022-09-12T03:28:01;10.50;99.90
17845;DHT22;9047;53.486;10.218;2022-09-12T03:43:50;10.50;99.90
17845;DHT22;9047;53.486;10.218;2022-09-12T03:46:41;10.40;99.90
17845;DHT22;9047;53.486;10.218;2022-09-12T03:49:45;10.40;99.90
17845;DHT22;9047;53.486;10.218;2022-09-12T04:30:36;10.30;99.90
17845;DHT22;9047;53.486;10.218;2022-09-12T04:43:54;10.40;99.90
17845;DHT22;9047;53.486;10.218;2022-09-12T04:46:45;10.30;99.90
17845;DHT22;9047;53.486;10.218;2022-09-12T04:49:19;10.30;99.90
17845;DHT22;9047;53.486;10.218;2022-09-12T04:52:09;10.30;99.90
17845;DHT22;9047;53.486;10.218;2022-09-12T05:09:21;10.30;99.90
17845;DHT22;9047;53.486;10.218;2022-09-12T05:12:30;10.40;99.90
17845;DHT22;9047;53.486;10.218;2022-09-12T05:19:22;10.40;99.90
17845;DHT22;9047;53.486;10.218;2022-09-12T06:33:44;12.80;99.90
17845;DHT22;9047;53.486;10.218;2022-09-12T06:44:16;12.90;99.90
17845;DHT22;9047;53.486;10.218;2022-09-12T06:47:38;13.00;99.90
17845;DHT22;9047;53.486;10.218;2022-09-12T06:54:27;13.30;99.90
17845;DHT22;9047;53.486;10.218;2022-09-12T06:57:10;13.50;99.90
17845;DHT22;9047;53.486;10.218;2022-09-12T06:59:43;13.70;99.90
17845;DHT22;9047;53.486;10.218;2022-09-12T07:02:37;13.80;99.90
17845;DHT22;9047;53.486;10.218;2022-09-12T07:05:24;13.90;99.90
17845;DHT22;9047;53.486;10.218;2022-09-12T07:08:06;14.00;99.90
17845;DHT22;9047;53.486;10.218;2022-09-12T07:10:57;14.40;99.90
17845;DHT22;9047;53.486;10.218;2022-09-12T07:15:02;14.90;99.90
17845;DHT22;9047;53.486;10.218;2022-09-12T07:17:04;15.50;99.90
17845;DHT22;9047;53.486;10.218;2022-09-12T07:19:31;16.10;99.90
17845;DHT22;9047;53.486;10.218;2022-09-12T07:25:16;17.20;99.90
17845;DHT22;9047;53.486;10.218;2022-09-12T07:28:17;17.60;99.90
17845;DHT22;9047;53.486;10.218;2022-09-12T07:31:00;18.00;99.90
17845;DHT22;9047;53.486;10.218;2022-09-12T07:34:02;17.90;99.90
17845;DHT22;9047;53.486;10.218;2022-09-12T07:40:09;17.20;99.90
17845;DHT22;9047;53.486;10.218;2022-09-12T07:43:43;16.80;99.90
17845;DHT22;9047;53.486;10.218;2022-09-12T07:46:34;16.60;99.90
17845;DHT22;9047;53.486;10.218;2022-09-12T07:49:41;16.40;99.90
17845;DHT22;9047;53.486;10.218;2022-09-12T07:52:12;16.20;99.90
17845;DHT22;9047;53.486;10.218;2022-09-12T07:54:39;16.20;99.90
17845;DHT22;9047;53.486;10.218;2022-09-12T07:57:12;16.20;99.90
17845;DHT22;9047;53.486;10.218;2022-09-12T07:59:47;16.20;99.90
17845;DHT22;9047;53.486;10.218;2022-09-12T08:02:35;16.20;99.90
17845;DHT22;9047;53.486;10.218;2022-09-12T08:05:26;16.30;99.90
17845;DHT22;9047;53.486;10.218;2022-09-12T08:08:11;16.30;99.90
17845;DHT22;9047;53.486;10.218;2022-09-12T08:10:43;16.40;99.90
17845;DHT22;9047;53.486;10.218;2022-09-12T08:16:23;16.60;99.90
17845;DHT22;9047;53.486;10.218;2022-09-12T08:19:51;16.80;99.90
17845;DHT22;9047;53.486;10.218;2022-09-12T08:23:05;16.90;99.90
17845;DHT22;9047;53.486;10.218;2022-09-12T08:25:59;17.10;99.90
17845;DHT22;9047;53.486;10.218;2022-09-12T08:28:50;17.30;99.90
17845;DHT22;9047;53.486;10.218;2022-09-12T09:10:11;19.60;99.90
17845;DHT22;9047;53.486;10.218;2022-09-12T09:16:34;19.90;99.90
17845;DHT22;9047;53.486;10.218;2022-09-12T09:36:58;20.50;99.90
17845;DHT22;9047;53.486;10.218;2022-09-12T09:41:25;20.60;99.90
17845;DHT22;9047;53.486;10.218;2022-09-12T09:46:36;20.90;99.90
17845;DHT22;9047;53.486;10.218;2022-09-12T09:49:12;21.00;99.90
17845;DHT22;9047;53.486;10.218;2022-09-12T09:52:06;21.10;99.90
17845;DHT22;9047;53.486;10.218;2022-09-12T09:55:01;21.20;99.90
17845;DHT22;9047;53.486;10.218;2022-09-12T11:02:12;22.80;99.90
17845;DHT22;9047;53.486;10.218;2022-09-12T11:04:17;22.80;99.90
17845;DHT22;9047;53.486;10.218;2022-09-12T11:20:37;23.10;99.90
17845;DHT22;9047;53.486;10.218;2022-09-12T11:23:44;23.20;99.90
17845;DHT22;9047;53.486;10.218;2022-09-12T11:26:42;23.30;99.90
17845;DHT22;9047;53.486;10.218;2022-09-12T11:29:45;23.40;99.90
17845;DHT22;9047;53.486;10.218;2022-09-12T11:32:41;23.40;99.90
17845;DHT22;9047;53.486;10.218;2022-09-12T11:35:21;23.40;99.70
17845;DHT22;9047;53.486;10.218;2022-09-12T11:38:27;23.40;99.90
17845;DHT22;9047;53.486;10.218;2022-09-12T11:41:21;23.40;99.90
17845;DHT22;9047;53.486;10.218;2022-09-12T11:44:02;23.50;99.90
17845;DHT22;9047;53.486;10.218;2022-09-12T11:46:35;23.40;99.90
17845;DHT22;9047;53.486;10.218;2022-09-12T11:49:23;23.40;99.90
17845;DHT22;9047;53.486;10.218;2022-09-12T11:52:18;23.40;99.90
17845;DHT22;9047;53.486;10.218;2022-09-12T11:54:58;23.40;99.90
17845;DHT22;9047;53.486;10.218;2022-09-12T11:57:58;23.50;99.90
17845;DHT22;9047;53.486;10.218;2022-09-12T12:00:48;23.50;99.60
17845;DHT22;9047;53.486;10.218;2022-09-12T12:03:40;23.60;99.80
17845;DHT22;9047;53.486;10.218;2022-09-12T12:06:14;23.70;99.90
17845;DHT22;9047;53.486;10.218;2022-09-12T12:08:52;23.60;99.90
17845;DHT22;9047;53.486;10.218;2022-09-12T12:11:55;23.50;99.90
17845;DHT22;9047;53.486;10.218;2022-09-12T12:14:56;23.50;99.90
17845;DHT22;9047;53.486;10.218;2022-09-12T12:18:07;23.50;99.50
17845;DHT22;9047;53.486;10.218;2022-09-12T12:24:37;23.50;99.90
17845;DHT22;9047;53.486;10.218;2022-09-12T12:27:57;23.50;99.90
17845;DHT22;9047;53.486;10.218;2022-09-12T12:31:10;23.60;99.90
17845;DHT22;9047;53.486;10.218;2022-09-12T12:38:11;23.80;99.30
17845;DHT22;9047;53.486;10.218;2022-09-12T12:45:09;23.60;99.30
17845;DHT22;9047;53.486;10.218;2022-09-12T12:48:00;23.70;99.40
17845;DHT22;9047;53.486;10.218;2022-09-12T12:50:32;23.70;99.90
17845;DHT22;9047;53.486;10.218;2022-09-12T12:53:34;23.80;99.90
17845;DHT22;9047;53.486;10.218;2022-09-12T12:56:32;23.90;98.80
17845;DHT22;9047;53.486;10.218;2022-09-12T12:59:18;24.10;98.80
17845;DHT22;9047;53.486;10.218;2022-09-12T13:08:24;24.10;99.10
17845;DHT22;9047;53.486;10.218;2022-09-12T13:11:31;24.10;99.10
17845;DHT22;9047;53.486;10.218;2022-09-12T13:17:52;23.90;99.70
17845;DHT22;9047;53.486;10.218;2022-09-12T13:20:43;23.80;99.60
17845;DHT22;9047;53.486;10.218;2022-09-12T13:23:22;23.80;99.60
17845;DHT22;9047;53.486;10.218;2022-09-12T13:29:16;23.80;99.50
17845;DHT22;9047;53.486;10.218;2022-09-12T13:32:08;23.90;99.40
17845;DHT22;9047;53.486;10.218;2022-09-12T13:35:06;24.00;99.40
17845;DHT22;9047;53.486;10.218;2022-09-12T13:54:46;23.80;99.90
17845;DHT22;9047;53.486;10.218;2022-09-12T14:14:53;23.70;98.50
17845;DHT22;9047;53.486;10.218;2022-09-12T14:24:08;23.40;99.50
17845;DHT22;9047;53.486;10.218;2022-09-12T14:26:54;23.40;99.90
17845;DHT22;9047;53.486;10.218;2022-09-12T14:29:55;23.50;99.60
17845;DHT22;9047;53.486;10.218;2022-09-12T14:32:43;23.50;99.20
17845;DHT22;9047;53.486;10.218;2022-09-12T14:35:30;23.60;99.10
17845;DHT22;9047;53.486;10.218;2022-09-12T14:38:11;23.80;99.30
17845;DHT22;9047;53.486;10.218;2022-09-12T14:40:45;23.80;98.20
17845;DHT22;9047;53.486;10.218;2022-09-12T14:43:20;23.80;98.20
17845;DHT22;9047;53.486;10.218;2022-09-12T14:46:01;23.70;98.70
17845;DHT22;9047;53.486;10.218;2022-09-12T14:48:53;23.70;98.70
17845;DHT22;9047;53.486;10.218;2022-09-12T14:51:54;23.70;98.40
17845;DHT22;9047;53.486;10.218;2022-09-12T14:54:36;23.80;98.80
17845;DHT22;9047;53.486;10.218;2022-09-12T14:57:35;23.80;98.90
17845;DHT22;9047;53.486;10.218;2022-09-12T15:00:21;23.70;98.70
17845;DHT22;9047;53.486;10.218;2022-09-12T15:09:28;23.20;99.50
17845;DHT22;9047;53.486;10.218;2022-09-12T15:12:15;23.10;99.60
17845;DHT22;9047;53.486;10.218;2022-09-12T15:15:51;23.00;99.20
17845;DHT22;9047;53.486;10.218;2022-09-12T15:18:06;23.00;99.90
17845;DHT22;9047;53.486;10.218;2022-09-12T15:20:45;23.00;99.80
17845;DHT22;9047;53.486;10.218;2022-09-12T15:23:29;22.90;99.90
17845;DHT22;9047;53.486;10.218;2022-09-12T15:27:11;22.80;99.60
17845;DHT22;9047;53.486;10.218;2022-09-12T15:29:21;22.80;99.90
17845;DHT22;9047;53.486;10.218;2022-09-12T15:32:03;22.60;99.90
17845;DHT22;9047;53.486;10.218;2022-09-12T15:35:23;22.60;99.90
17845;DHT22;9047;53.486;10.218;2022-09-12T15:38:03;22.60;99.90
17845;DHT22;9047;53.486;10.218;2022-09-12T15:43:38;22.80;99.90
17845;DHT22;9047;53.486;10.218;2022-09-12T15:46:14;22.90;99.90
17845;DHT22;9047;53.486;10.218;2022-09-12T15:48:48;23.10;99.90
17845;DHT22;9047;53.486;10.218;2022-09-12T15:51:25;23.20;99.70
17845;DHT22;9047;53.486;10.218;2022-09-12T15:53:56;23.30;99.50
17845;DHT22;9047;53.486;10.218;2022-09-12T15:57:06;23.40;99.30
17845;DHT22;9047;53.486;10.218;2022-09-12T16:00:00;23.40;99.00
17845;DHT22;9047;53.486;10.218;2022-09-12T16:05:59;23.30;99.00
17845;DHT22;9047;53.486;10.218;2022-09-12T16:08:30;23.10;98.70
17845;DHT22;9047;53.486;10.218;2022-09-12T16:11:29;23.00;98.90
17845;DHT22;9047;53.486;10.218;2022-09-12T16:14:35;22.90;99.10
17845;DHT22;9047;53.486;10.218;2022-09-12T16:20:19;22.70;99.60
17845;DHT22;9047;53.486;10.218;2022-09-12T16:22:55;22.60;99.50
17845;DHT22;9047;53.486;10.218;2022-09-12T16:25:40;22.60;99.90
17845;DHT22;9047;53.486;10.218;2022-09-12T16:28:26;22.50;99.90
17845;DHT22;9047;53.486;10.218;2022-09-12T16:34:36;22.30;99.90
17845;DHT22;9047;53.486;10.218;2022-09-12T16:37:24;22.20;99.90
17845;DHT22;9047;53.486;10.218;2022-09-12T16:43:21;21.90;99.90
17845;DHT22;9047;53.486;10.218;2022-09-12T16:46:09;21.80;99.90
17845;DHT22;9047;53.486;10.218;2022-09-12T16:49:05;21.50;99.90
17845;DHT22;9047;53.486;10.218;2022-09-12T16:51:39;21.40;99.90
17845;DHT22;9047;53.486;10.218;2022-09-12T16:54:10;21.30;99.90
17845;DHT22;9047;53.486;10.218;2022-09-12T16:57:13;21.10;99.90
17845;DHT22;9047;53.486;10.218;2022-09-12T17:03:43;20.80;99.90
17845;DHT22;9047;53.486;10.218;2022-09-12T17:18:04;20.10;99.90
17845;DHT22;9047;53.486;10.218;2022-09-12T17:20:50;19.90;99.90
17845;DHT22;9047;53.486;10.218;2022-09-12T17:23:37;19.80;99.90
17845;DHT22;9047;53.486;10.218;2022-09-12T17:26:19;19.70;99.90
17845;DHT22;9047;53.486;10.218;2022-09-12T17:29:04;19.60;99.90
17845;DHT22;9047;53.486;10.218;2022-09-12T17:32:06;19.40;99.90
17845;DHT22;9047;53.486;10.218;2022-09-12T17:38:17;19.20;99.90
17845;DHT22;9047;53.486;10.218;2022-09-12T17:41:05;19.10;99.90
17845;DHT22;9047;53.486;10.218;2022-09-12T17:43:57;19.00;99.90
17845;DHT22;9047;53.486;10.218;2022-09-12T17:47:02;19.00;99.90
17845;DHT22;9047;53.486;10.218;2022-09-12T17:49:56;18.90;99.90
17845;DHT22;9047;53.486;10.218;2022-09-12T17:52:43;18.80;99.90
17845;DHT22;9047;53.486;10.218;2022-09-12T17:55:28;18.80;99.90
17845;DHT22;9047;53.486;10.218;2022-09-12T17:57:59;18.70;99.90
17845;DHT22;9047;53.486;10.218;2022-09-12T18:00:40;18.70;99.90
17845;DHT22;9047;53.486;10.218;2022-09-12T18:03:27;18.70;99.90
17845;DHT22;9047;53.486;10.218;2022-09-12T18:06:07;18.70;99.90
17845;DHT22;9047;53.486;10.218;2022-09-12T18:08:45;18.70;99.90
17845;DHT22;9047;53.486;10.218;2022-09-12T18:11:28;18.70;99.90
17845;DHT22;9047;53.486;10.218;2022-09-12T18:13:57;18.70;99.90
17845;DHT22;9047;53.486;10.218;2022-09-12T18:16:41;18.70;99.90
17845;DHT22;9047;53.486;10.218;2022-09-12T18:19:17;18.60;99.90
17845;DHT22;9047;53.486;10.218;2022-09-12T18:21:55;18.60;99.90
17845;DHT22;9047;53.486;10.218;2022-09-12T18:24:24;18.60;99.90
17845;DHT22;9047;53.486;10.218;2022-09-12T18:26:56;18.60;99.90
17845;DHT22;9047;53.486;10.218;2022-09-12T18:29:34;18.60;99.90
17845;DHT22;9047;53.486;10.218;2022-09-12T18:32:07;18.60;99.90
17845;DHT22;9047;53.486;10.218;2022-09-12T18:34:41;18.60;99.90
17845;DHT22;9047;53.486;10.218;2022-09-12T18:37:12;18.60;99.90
17845;DHT22;9047;53.486;10.218;2022-09-12T18:39:39;18.60;99.90
17845;DHT22;9047;53.486;10.218;2022-09-12T18:42:11;18.60;99.90
17845;DHT22;9047;53.486;10.218;2022-09-12T18:44:38;18.60;99.90
17845;DHT22;9047;53.486;10.218;2022-09-12T18:47:17;18.50;99.90
17845;DHT22;9047;53.486;10.218;2022-09-12T18:49:57;18.50;99.90
17845;DHT22;9047;53.486;10.218;2022-09-12T18:52:25;18.40;99.90
17845;DHT22;9047;53.486;10.218;2022-09-12T18:54:56;18.30;99.90
17845;DHT22;9047;53.486;10.218;2022-09-12T18:57:25;18.30;99.90
17845;DHT22;9047;53.486;10.218;2022-09-12T18:59:52;18.30;99.90
17845;DHT22;9047;53.486;10.218;2022-09-12T19:02:33;18.20;99.90
17845;DHT22;9047;53.486;10.218;2022-09-12T19:05:10;18.20;99.90
17845;DHT22;9047;53.486;10.218;2022-09-12T19:07:41;18.10;99.90
17845;DHT22;9047;53.486;10.218;2022-09-12T19:10:30;18.10;99.90
17845;DHT22;9047;53.486;10.218;2022-09-12T19:13:11;18.10;99.90
17845;DHT22;9047;53.486;10.218;2022-09-12T19:15:42;18.00;99.90
17845;DHT22;9047;53.486;10.218;2022-09-12T19:18:15;18.00;99.90
17845;DHT22;9047;53.486;10.218;2022-09-12T19:21:05;17.90;99.90
17845;DHT22;9047;53.486;10.218;2022-09-12T19:23:36;17.80;99.90
17845;DHT22;9047;53.486;10.218;2022-09-12T19:26:22;17.80;99.90
17845;DHT22;9047;53.486;10.218;2022-09-12T19:28:55;17.70;99.90
17845;DHT22;9047;53.486;10.218;2022-09-12T19:31:23;17.70;99.90
17845;DHT22;9047;53.486;10.218;2022-09-12T19:34:02;17.60;99.90
17845;DHT22;9047;53.486;10.218;2022-09-12T19:39:11;17.50;99.90
17845;DHT22;9047;53.486;10.218;2022-09-12T19:41:48;17.50;99.90
17845;DHT22;9047;53.486;10.218;2022-09-12T19:44:17;17.40;99.90
17845;DHT22;9047;53.486;10.218;2022-09-12T19:49:59;17.40;99.90
17845;DHT22;9047;53.486;10.218;2022-09-12T19:52:43;17.30;99.90
17845;DHT22;9047;53.486;10.218;2022-09-12T19:55:11;17.30;99.90
17845;DHT22;9047;53.486;10.218;2022-09-12T19:58:20;17.30;99.90
17845;DHT22;9047;53.486;10.218;2022-09-12T20:00:47;17.20;99.90
17845;DHT22;9047;53.486;10.218;2022-09-12T20:03:31;17.20;99.90
17845;DHT22;9047;53.486;10.218;2022-09-12T20:16:35;17.20;99.90
17845;DHT22;9047;53.486;10.218;2022-09-12T20:19:38;17.20;99.90
17845;DHT22;9047;53.486;10.218;2022-09-12T20:22:09;17.20;99.90
17845;DHT22;9047;53.486;10.218;2022-09-12T20:25:06;17.20;99.90
17845;DHT22;9047;53.486;10.218;2022-09-12T20:28:01;17.10;99.90
17845;DHT22;9047;53.486;10.218;2022-09-12T20:30:30;17.10;99.90
17845;DHT22;9047;53.486;10.218;2022-09-12T20:33:08;17.00;99.90
17845;DHT22;9047;53.486;10.218;2022-09-12T20:42:49;16.80;99.90
17845;DHT22;9047;53.486;10.218;2022-09-12T20:45:38;16.70;99.90
17845;DHT22;9047;53.486;10.218;2022-09-12T20:48:34;16.70;99.90
17845;DHT22;9047;53.486;10.218;2022-09-12T20:51:08;16.70;99.90
17845;DHT22;9047;53.486;10.218;2022-09-12T20:53:38;16.60;99.90
17845;DHT22;9047;53.486;10.218;2022-09-12T20:56:17;16.60;99.90
17845;DHT22;9047;53.486;10.218;2022-09-12T20:58:44;16.50;99.90
17845;DHT22;9047;53.486;10.218;2022-09-12T21:02:26;16.40;99.90
17845;DHT22;9047;53.486;10.218;2022-09-12T21:05:21;16.40;99.90
17845;DHT22;9047;53.486;10.218;2022-09-12T21:08:08;16.30;99.90
17845;DHT22;9047;53.486;10.218;2022-09-12T21:10:50;16.30;99.90
17845;DHT22;9047;53.486;10.218;2022-09-12T21:13:21;16.20;99.90
17845;DHT22;9047;53.486;10.218;2022-09-12T21:16:05;16.20;99.90
17845;DHT22;9047;53.486;10.218;2022-09-12T21:19:03;16.10;99.90
17845;DHT22;9047;53.486;10.218;2022-09-12T21:25:32;16.00;99.90
17845;DHT22;9047;53.486;10.218;2022-09-12T21:29:02;16.00;99.90
17845;DHT22;9047;53.486;10.218;2022-09-12T21:40:21;15.90;99.90
17845;DHT22;9047;53.486;10.218;2022-09-12T21:41:28;15.90;99.90
17845;DHT22;9047;53.486;10.218;2022-09-12T21:44:13;15.80;99.90
17845;DHT22;9047;53.486;10.218;2022-09-12T21:46:47;15.80;99.90
17845;DHT22;9047;53.486;10.218;2022-09-12T21:49:19;15.80;99.90
17845;DHT22;9047;53.486;10.218;2022-09-12T21:54:57;15.80;99.90
17845;DHT22;9047;53.486;10.218;2022-09-12T21:57:26;15.80;99.90
17845;DHT22;9047;53.486;10.218;2022-09-12T21:59:59;15.80;99.90
17845;DHT22;9047;53.486;10.218;2022-09-12T22:02:29;15.80;99.90
17845;DHT22;9047;53.486;10.218;2022-09-12T22:04:56;15.80;99.90
17845;DHT22;9047;53.486;10.218;2022-09-12T22:07:24;15.80;99.90
17845;DHT22;9047;53.486;10.218;2022-09-12T22:09:55;15.80;99.90
17845;DHT22;9047;53.486;10.218;2022-09-12T22:12:40;15.80;99.90
17845;DHT22;9047;53.486;10.218;2022-09-12T22:15:08;15.80;99.90
17845;DHT22;9047;53.486;10.218;2022-09-12T22:18:54;15.80;99.90
17845;DHT22;9047;53.486;10.218;2022-09-12T22:20:41;15.80;99.90
17845;DHT22;9047;53.486;10.218;2022-09-12T22:23:09;15.70;99.90
17845;DHT22;9047;53.486;10.218;2022-09-12T22:25:55;15.80;99.90
17845;DHT22;9047;53.486;10.218;2022-09-12T22:28:31;15.80;99.90
17845;DHT22;9047;53.486;10.218;2022-09-12T22:31:29;15.80;99.90
17845;DHT22;9047;53.486;10.218;2022-09-12T22:34:09;15.70;99.90
17845;DHT22;9047;53.486;10.218;2022-09-12T22:36:41;15.80;99.90
17845;DHT22;9047;53.486;10.218;2022-09-12T22:39:15;15.80;99.90
17845;DHT22;9047;53.486;10.218;2022-09-12T22:41:46;15.80;99.90
17845;DHT22;9047;53.486;10.218;2022-09-12T22:44:19;15.70;99.90
17845;DHT22;9047;53.486;10.218;2022-09-12T22:46:46;15.70;99.90
17845;DHT22;9047;53.486;10.218;2022-09-12T22:49:15;15.70;99.90
17845;DHT22;9047;53.486;10.218;2022-09-12T22:51:42;15.80;99.90
17845;DHT22;9047;53.486;10.218;2022-09-12T22:54:12;15.70;99.90
17845;DHT22;9047;53.486;10.218;2022-09-12T22:56:40;15.70;99.90
17845;DHT22;9047;53.486;10.218;2022-09-12T22:59:10;15.60;99.90
17845;DHT22;9047;53.486;10.218;2022-09-12T23:01:39;15.70;99.90
17845;DHT22;9047;53.486;10.218;2022-09-12T23:04:27;15.70;99.90
17845;DHT22;9047;53.486;10.218;2022-09-12T23:07:07;15.70;99.90
17845;DHT22;9047;53.486;10.218;2022-09-12T23:09:34;15.70;99.90
17845;DHT22;9047;53.486;10.218;2022-09-12T23:12:04;15.70;99.90
17845;DHT22;9047;53.486;10.218;2022-09-12T23:14:49;15.80;99.90
17845;DHT22;9047;53.486;10.218;2022-09-12T23:17:19;15.70;99.90
17845;DHT22;9047;53.486;10.218;2022-09-12T23:19:59;15.70;99.90
17845;DHT22;9047;53.486;10.218;2022-09-12T23:22:27;15.70;99.90
17845;DHT22;9047;53.486;10.218;2022-09-12T23:29:16;15.80;99.90
17845;DHT22;9047;53.486;10.218;2022-09-12T23:31:10;15.80;99.90
17845;DHT22;9047;53.486;10.218;2022-09-12T23:34:01;15.80;99.90
17845;DHT22;9047;53.486;10.218;2022-09-12T23:36:36;15.70;99.90
17845;DHT22;9047;53.486;10.218;2022-09-12T23:39:15;15.80;99.90
17845;DHT22;9047;53.486;10.218;2022-09-12T23:41:49;15.80;99.90
17845;DHT22;9047;53.486;10.218;2022-09-12T23:44:19;15.80;99.90
17845;DHT22;9047;53.486;10.218;2022-09-12T23:46:51;15.80;99.90
17845;DHT22;9047;53.486;10.218;2022-09-12T23:49:42;15.80;99.90
17845;DHT22;9047;53.486;10.218;2022-09-12T23:52:12;15.80;99.90
17845;DHT22;9047;53.486;10.218;2022-09-12T23:57:20;15.80;99.90
17845;DHT22;9047;53.486;10.218;2022-09-12T23:57:50;15.80;99.90
